Oesterbotten — MHYJ3 — position and weather

sailwx.info

Track history (hours):
 
Tides and Currents Weather Stations Pressure Air Temp Water Temp Dewpoint Dewpoint Depression Visibility Wind Speed Wind Dir Waves Ship Positions

Oesterbotten

Last reported at 2018-Feb-22 02:41 UTC. Time now 2018-Feb-23 08:41 UTC.
Position N 60°32' E 027°10'.

Length 110 m; draft 6.4 m.

Type: Cargo ship. MMSI: 235008920.

Date/timePositionNaut miles runAvg speedWind from/ knotsBaromVisibWave heightAir tempDewpointWater temp
2018-Feb-22 02:41N 60°32' E 027°10'0 0.0
2018-Feb-22 02:23N 60°32' E 027°10'0 0.0
2018-Feb-22 01:11N 60°32' E 027°10'0 0.0
2018-Feb-22 00:53N 60°32' E 027°10'0 0.0
2018-Feb-22 00:29N 60°32' E 027°10'0 0.0
2018-Feb-21 23:59N 60°32' E 027°10'0 0.0
2018-Feb-21 21:26N 60°32' E 027°10'0 0.0
2018-Feb-21 20:50N 60°32' E 027°10'0 0.0
2018-Feb-21 20:11N 60°32' E 027°10'0 0.0
2018-Feb-21 19:59N 60°32' E 027°10'0 0.0
2018-Feb-21 19:29N 60°32' E 027°10'0 0.0
2018-Feb-21 16:28N 60°32' E 027°10'0 0.2
2018-Feb-21 16:00N 60°31' E 027°10'3 5.6
2018-Feb-21 15:30N 60°29' E 027°08'4 8.5
2018-Feb-21 15:00N 60°25' E 027°09'4 8.6
2018-Feb-21 14:30N 60°21' E 027°07'510.1
2018-Feb-21 14:00N 60°22' E 026°57'5 9.1
2018-Feb-21 13:30N 60°23' E 026°48'4 8.9
2018-Feb-21 13:00N 60°21' E 026°39'510.8
2018-Feb-21 12:30N 60°17' E 026°32'5 9.7
2018-Feb-21 12:00N 60°14' E 026°25'510.4
2018-Feb-21 11:30N 60°09' E 026°19'510.4
2018-Feb-21 11:00N 60°05' E 026°13'36 9.6
2018-Feb-21 07:19N 59°48' E 025°11'3 9.9
2018-Feb-21 06:59N 59°48' E 025°05'510.1
2018-Feb-21 06:31N 59°46' E 024°55'510.4
2018-Feb-21 06:00N 59°45' E 024°45'510.5
2018-Feb-21 05:30N 59°44' E 024°35'510.2
2018-Feb-21 05:00N 59°43' E 024°25'1110.2
2018-Feb-21 03:57N 59°39' E 024°06'510.4
2018-Feb-21 03:29N 59°37' E 023°57'610.9
2018-Feb-21 02:57N 59°34' E 023°47'510.9
2018-Feb-21 02:30N 59°32' E 023°38'710.8
2018-Feb-21 01:54N 59°29' E 023°26'  
2018-Feb-18 03:15N 59°44' E 019°46'311.2
2018-Feb-18 02:59N 59°46' E 019°42'511.1
2018-Feb-18 02:30N 59°50' E 019°36'611.1
2018-Feb-18 02:00N 59°54' E 019°29'611.2
2018-Feb-18 01:30N 59°59' E 019°22'611.1
2018-Feb-18 01:00N 60°03' E 019°14'611.2
2018-Feb-18 00:30N 60°07' E 019°07'510.9
2018-Feb-18 00:00N 60°12' E 019°02'611.1
2018-Feb-17 23:30N 60°17' E 019°00'611.0
2018-Feb-17 23:00N 60°23' E 018°59'511.0
2018-Feb-17 22:30N 60°28' E 018°57'710.2
2018-Feb-17 21:51N 60°33' E 018°47'510.9
2018-Feb-17 21:24N 60°34' E 018°38'17 0.5
2018-Feb-16 09:48N 60°21' E 019°01'310.4
2018-Feb-16 09:29N 60°18' E 019°01'610.4
2018-Feb-16 08:58N 60°13' E 019°05'510.4
2018-Feb-16 08:30N 60°09' E 019°11'510.5
2018-Feb-16 08:00N 60°05' E 019°17'610.6
2018-Feb-16 07:28N 60°00' E 019°25'510.7
2018-Feb-16 07:00N 59°57' E 019°31'510.8
2018-Feb-16 06:30N 59°53' E 019°38'4510.3
2018-Feb-16 02:05N 59°37' E 021°02'110.6
2018-Feb-16 02:00N 59°37' E 021°04'610.7
2018-Feb-16 01:29N 59°35' E 021°14'510.7
2018-Feb-16 01:00N 59°35' E 021°25'510.6
2018-Feb-16 00:30N 59°35' E 021°35'510.4
2018-Feb-16 00:00N 59°35' E 021°45'510.6
2018-Feb-15 23:30N 59°36' E 021°56'510.7
2018-Feb-15 23:00N 59°36' E 022°06'2510.8
2018-Feb-15 20:39N 59°39' E 022°56'210.4
2018-Feb-15 20:28N 59°39' E 023°00'510.2
2018-Feb-15 20:00N 59°39' E 023°09'510.4
2018-Feb-15 19:30N 59°40' E 023°20'510.6
2018-Feb-15 19:00N 59°41' E 023°30'510.8
2018-Feb-15 18:30N 59°42' E 023°40'511.0
2018-Feb-15 18:00N 59°43' E 023°51'611.2
2018-Feb-15 17:30N 59°45' E 024°02'611.0
2018-Feb-15 16:57N 59°46' E 024°14'612.9
2018-Feb-15 16:27N 59°48' E 024°26'4 9.1
2018-Feb-15 15:59N 59°48' E 024°34'611.5
2018-Feb-15 15:29N 59°45' E 024°45'5 9.7
2018-Feb-15 15:00N 59°44' E 024°53'510.0
2018-Feb-15 14:30N 59°44' E 025°03'510.7
2018-Feb-15 14:00N 59°44' E 025°14'3111.0
2018-Feb-15 11:13N 59°37' E 026°14'2 9.1
2018-Feb-15 10:59N 59°37' E 026°18'5 9.7
2018-Feb-15 10:30N 59°35' E 026°26'5 3.1
2018-Feb-15 09:00N 59°32' E 026°33'0 0.0
2018-Feb-15 06:08N 59°32' E 026°33'0 0.0
2018-Feb-15 05:56N 59°32' E 026°33'0 0.0
2018-Feb-15 04:41N 59°32' E 026°33'0 0.0
2018-Feb-15 04:08N 59°32' E 026°33'0 0.0
2018-Feb-15 03:59N 59°32' E 026°33'0 0.0
2018-Feb-14 17:50N 59°32' E 026°33'0 0.0
2018-Feb-14 17:29N 59°32' E 026°33'0 0.0
2018-Feb-14 16:41N 59°32' E 026°33'0 0.0
2018-Feb-14 16:23N 59°32' E 026°33'0 0.0
2018-Feb-14 15:56N 59°32' E 026°33'0 0.0
2018-Feb-14 15:20N 59°32' E 026°33'0 0.0
2018-Feb-14 14:59N 59°32' E 026°33'0 0.0
2018-Feb-14 14:29N 59°32' E 026°33'0 0.0
2018-Feb-14 13:59N 59°32' E 026°33'0 0.0
2018-Feb-14 13:26N 59°32' E 026°33'0 0.0
2018-Feb-14 12:59N 59°32' E 026°33'0 0.0
2018-Feb-14 12:29N 59°32' E 026°33'0 0.0
2018-Feb-14 11:56N 59°32' E 026°33'0 0.0
2018-Feb-14 11:29N 59°32' E 026°33'0 0.0
2018-Feb-14 10:56N 59°32' E 026°33'0 0.0
2018-Feb-14 10:29N 59°32' E 026°33'0 0.0
2018-Feb-14 09:59N 59°32' E 026°33'0 0.0
2018-Feb-14 09:30N 59°32' E 026°33'0 0.1
2018-Feb-14 09:00N 59°32' E 026°33'3 6.0
2018-Feb-14 08:28N 59°34' E 026°29'0 0.1
2018-Feb-14 07:22N 59°34' E 026°29'0 0.0
2018-Feb-14 06:34N 59°34' E 026°29'0 0.0
2018-Feb-14 06:16N 59°34' E 026°29'0 0.1
2018-Feb-14 05:52N 59°34' E 026°29'0 0.1
2018-Feb-14 05:30N 59°34' E 026°29'3 6.2
2018-Feb-14 05:01N 59°36' E 026°24'5 9.1
2018-Feb-14 04:30N 59°38' E 026°16'30 9.4
2018-Feb-14 01:18N 59°43' E 025°17'3 9.8
2018-Feb-14 01:00N 59°43' E 025°12'510.0
2018-Feb-14 00:29N 59°43' E 025°01'5 9.8
2018-Feb-14 00:00N 59°44' E 024°52'5 9.8
2018-Feb-13 23:30N 59°44' E 024°42'510.2
2018-Feb-13 23:00N 59°43' E 024°32'510.5
2018-Feb-13 22:31N 59°41' E 024°23'510.5
2018-Feb-13 22:00N 59°40' E 024°13'510.3
2018-Feb-13 21:30N 59°38' E 024°03'1010.1
2018-Feb-13 20:31N 59°35' E 023°44'011.3
2018-Feb-13 20:30N 59°35' E 023°44'610.6
2018-Feb-13 19:59N 59°33' E 023°34'610.6
2018-Feb-13 19:26N 59°31' E 023°23'410.1
2018-Feb-13 19:00N 59°30' E 023°15'44 9.8
2018-Feb-13 14:28N 59°29' E 021°48'510.0
2018-Feb-13 14:00N 59°30' E 021°39'510.0
2018-Feb-13 13:30N 59°31' E 021°29'5 9.9
2018-Feb-13 13:00N 59°33' E 021°20'5 9.7
2018-Feb-13 12:30N 59°34' E 021°11'5 9.8
2018-Feb-13 11:59N 59°36' E 021°01'56 9.2
2018-Feb-13 05:55N 59°59' E 019°21'4 9.9
2018-Feb-13 05:30N 60°03' E 019°15'5 9.6
2018-Feb-13 05:00N 60°06' E 019°09'5 9.6
2018-Feb-13 04:30N 60°10' E 019°03'5 9.0
2018-Feb-13 04:00N 60°14' E 019°01'5 9.2
2018-Feb-13 03:30N 60°19' E 019°00'5 9.5
2018-Feb-13 03:00N 60°24' E 018°59'70 9.9
2018-Feb-12 19:58N 61°06' E 020°54'510.8
2018-Feb-12 19:30N 61°08' E 021°03'510.4
2018-Feb-12 19:01N 61°07' E 021°13'5 9.4
2018-Feb-12 18:31N 61°07' E 021°23'2 3.8
2018-Feb-12 18:00N 61°07' E 021°27'0 0.0
2018-Feb-12 17:27N 61°07' E 021°27'0 0.0
2018-Feb-12 17:00N 61°07' E 021°27'0 0.0
2018-Feb-12 16:30N 61°07' E 021°27'0 0.0
2018-Feb-12 15:57N 61°07' E 021°27'0 0.0
2018-Feb-12 15:15N 61°07' E 021°27'0 0.0
2018-Feb-12 15:00N 61°07' E 021°27'0 0.0
2018-Feb-12 14:30N 61°07' E 021°27'0 0.0
2018-Feb-12 14:00N 61°07' E 021°27'0 0.0
2018-Feb-12 13:30N 61°07' E 021°27'0 0.0
2018-Feb-12 13:00N 61°07' E 021°27'0 0.0
2018-Feb-12 12:30N 61°07' E 021°27'0 0.0
2018-Feb-12 11:57N 61°07' E 021°27'0 0.0
2018-Feb-12 11:30N 61°07' E 021°27'0 0.0
2018-Feb-12 11:00N 61°07' E 021°27'0 0.0
2018-Feb-12 10:30N 61°07' E 021°27'0 0.0
2018-Feb-12 10:00N 61°07' E 021°27'0 0.0
2018-Feb-12 09:30N 61°07' E 021°27'0 0.0
2018-Feb-12 09:00N 61°07' E 021°27'0 0.0
2018-Feb-12 08:30N 61°07' E 021°27'0 0.0
2018-Feb-12 08:00N 61°07' E 021°27'0 0.0
2018-Feb-12 07:30N 61°07' E 021°27'0 0.0
2018-Feb-12 07:00N 61°07' E 021°27'0 0.0
2018-Feb-12 06:30N 61°07' E 021°27'0 0.0
2018-Feb-12 06:00N 61°07' E 021°27'0 0.0
2018-Feb-12 05:30N 61°07' E 021°27'0 0.0
2018-Feb-12 05:00N 61°07' E 021°27'0 0.0
2018-Feb-12 04:30N 61°07' E 021°27'0 0.0
2018-Feb-12 04:00N 61°07' E 021°27'0 0.0
2018-Feb-12 03:30N 61°07' E 021°27'0 0.3
2018-Feb-12 03:00N 61°07' E 021°26'  
Track history (hours):
 
Tides and Currents Weather Stations Pressure Air Temp Water Temp Dewpoint Dewpoint Depression Visibility Wind Speed Wind Dir Waves Ship Positions

Oesterbotten

Last reported at 2018-Feb-22 02:41 UTC. Time now 2018-Feb-23 08:41 UTC.
Position N 60°32' E 027°10'.

Length 110 m; draft 6.4 m.

Type: Cargo ship. MMSI: 235008920.

Date/timePositionNaut miles runAvg speedWind from/ knotsBaromVisibWave heightAir tempDewpointWater temp
2018-Feb-22 02:41N 60°32' E 027°10'0 0.0
2018-Feb-22 02:23N 60°32' E 027°10'0 0.0
2018-Feb-22 01:11N 60°32' E 027°10'0 0.0
2018-Feb-22 00:53N 60°32' E 027°10'0 0.0
2018-Feb-22 00:29N 60°32' E 027°10'0 0.0
2018-Feb-21 23:59N 60°32' E 027°10'0 0.0
2018-Feb-21 21:26N 60°32' E 027°10'0 0.0
2018-Feb-21 20:50N 60°32' E 027°10'0 0.0
2018-Feb-21 20:11N 60°32' E 027°10'0 0.0
2018-Feb-21 19:59N 60°32' E 027°10'0 0.0
2018-Feb-21 19:29N 60°32' E 027°10'0 0.0
2018-Feb-21 16:28N 60°32' E 027°10'0 0.2
2018-Feb-21 16:00N 60°31' E 027°10'3 5.6
2018-Feb-21 15:30N 60°29' E 027°08'4 8.5
2018-Feb-21 15:00N 60°25' E 027°09'4 8.6
2018-Feb-21 14:30N 60°21' E 027°07'510.1
2018-Feb-21 14:00N 60°22' E 026°57'5 9.1
2018-Feb-21 13:30N 60°23' E 026°48'4 8.9
2018-Feb-21 13:00N 60°21' E 026°39'510.8
2018-Feb-21 12:30N 60°17' E 026°32'5 9.7
2018-Feb-21 12:00N 60°14' E 026°25'510.4
2018-Feb-21 11:30N 60°09' E 026°19'510.4
2018-Feb-21 11:00N 60°05' E 026°13'36 9.6
2018-Feb-21 07:19N 59°48' E 025°11'3 9.9
2018-Feb-21 06:59N 59°48' E 025°05'510.1
2018-Feb-21 06:31N 59°46' E 024°55'510.4
2018-Feb-21 06:00N 59°45' E 024°45'510.5
2018-Feb-21 05:30N 59°44' E 024°35'510.2
2018-Feb-21 05:00N 59°43' E 024°25'1110.2
2018-Feb-21 03:57N 59°39' E 024°06'510.4
2018-Feb-21 03:29N 59°37' E 023°57'610.9
2018-Feb-21 02:57N 59°34' E 023°47'510.9
2018-Feb-21 02:30N 59°32' E 023°38'710.8
2018-Feb-21 01:54N 59°29' E 023°26'  
2018-Feb-18 03:15N 59°44' E 019°46'311.2
2018-Feb-18 02:59N 59°46' E 019°42'511.1
2018-Feb-18 02:30N 59°50' E 019°36'611.1
2018-Feb-18 02:00N 59°54' E 019°29'611.2
2018-Feb-18 01:30N 59°59' E 019°22'611.1
2018-Feb-18 01:00N 60°03' E 019°14'611.2
2018-Feb-18 00:30N 60°07' E 019°07'510.9
2018-Feb-18 00:00N 60°12' E 019°02'611.1
2018-Feb-17 23:30N 60°17' E 019°00'611.0
2018-Feb-17 23:00N 60°23' E 018°59'511.0
2018-Feb-17 22:30N 60°28' E 018°57'710.2
2018-Feb-17 21:51N 60°33' E 018°47'510.9
2018-Feb-17 21:24N 60°34' E 018°38'17 0.5
2018-Feb-16 09:48N 60°21' E 019°01'310.4
2018-Feb-16 09:29N 60°18' E 019°01'610.4
2018-Feb-16 08:58N 60°13' E 019°05'510.4
2018-Feb-16 08:30N 60°09' E 019°11'510.5
2018-Feb-16 08:00N 60°05' E 019°17'610.6
2018-Feb-16 07:28N 60°00' E 019°25'510.7
2018-Feb-16 07:00N 59°57' E 019°31'510.8
2018-Feb-16 06:30N 59°53' E 019°38'4510.3
2018-Feb-16 02:05N 59°37' E 021°02'110.6
2018-Feb-16 02:00N 59°37' E 021°04'610.7
2018-Feb-16 01:29N 59°35' E 021°14'510.7
2018-Feb-16 01:00N 59°35' E 021°25'510.6
2018-Feb-16 00:30N 59°35' E 021°35'510.4
2018-Feb-16 00:00N 59°35' E 021°45'510.6
2018-Feb-15 23:30N 59°36' E 021°56'510.7
2018-Feb-15 23:00N 59°36' E 022°06'2510.8
2018-Feb-15 20:39N 59°39' E 022°56'210.4
2018-Feb-15 20:28N 59°39' E 023°00'510.2
2018-Feb-15 20:00N 59°39' E 023°09'510.4
2018-Feb-15 19:30N 59°40' E 023°20'510.6
2018-Feb-15 19:00N 59°41' E 023°30'510.8
2018-Feb-15 18:30N 59°42' E 023°40'511.0
2018-Feb-15 18:00N 59°43' E 023°51'611.2
2018-Feb-15 17:30N 59°45' E 024°02'611.0
2018-Feb-15 16:57N 59°46' E 024°14'612.9
2018-Feb-15 16:27N 59°48' E 024°26'4 9.1
2018-Feb-15 15:59N 59°48' E 024°34'611.5
2018-Feb-15 15:29N 59°45' E 024°45'5 9.7
2018-Feb-15 15:00N 59°44' E 024°53'510.0
2018-Feb-15 14:30N 59°44' E 025°03'510.7
2018-Feb-15 14:00N 59°44' E 025°14'3111.0
2018-Feb-15 11:13N 59°37' E 026°14'2 9.1
2018-Feb-15 10:59N 59°37' E 026°18'5 9.7
2018-Feb-15 10:30N 59°35' E 026°26'5 3.1
2018-Feb-15 09:00N 59°32' E 026°33'0 0.0
2018-Feb-15 06:08N 59°32' E 026°33'0 0.0
2018-Feb-15 05:56N 59°32' E 026°33'0 0.0
2018-Feb-15 04:41N 59°32' E 026°33'0 0.0
2018-Feb-15 04:08N 59°32' E 026°33'0 0.0
2018-Feb-15 03:59N 59°32' E 026°33'0 0.0
2018-Feb-14 17:50N 59°32' E 026°33'0 0.0
2018-Feb-14 17:29N 59°32' E 026°33'0 0.0
2018-Feb-14 16:41N 59°32' E 026°33'0 0.0
2018-Feb-14 16:23N 59°32' E 026°33'0 0.0
2018-Feb-14 15:56N 59°32' E 026°33'0 0.0
2018-Feb-14 15:20N 59°32' E 026°33'0 0.0
2018-Feb-14 14:59N 59°32' E 026°33'0 0.0
2018-Feb-14 14:29N 59°32' E 026°33'0 0.0
2018-Feb-14 13:59N 59°32' E 026°33'0 0.0
2018-Feb-14 13:26N 59°32' E 026°33'0 0.0
2018-Feb-14 12:59N 59°32' E 026°33'0 0.0
2018-Feb-14 12:29N 59°32' E 026°33'0 0.0
2018-Feb-14 11:56N 59°32' E 026°33'0 0.0
2018-Feb-14 11:29N 59°32' E 026°33'0 0.0
2018-Feb-14 10:56N 59°32' E 026°33'0 0.0
2018-Feb-14 10:29N 59°32' E 026°33'0 0.0
2018-Feb-14 09:59N 59°32' E 026°33'0 0.0
2018-Feb-14 09:30N 59°32' E 026°33'0 0.1
2018-Feb-14 09:00N 59°32' E 026°33'3 6.0
2018-Feb-14 08:28N 59°34' E 026°29'0 0.1
2018-Feb-14 07:22N 59°34' E 026°29'0 0.0
2018-Feb-14 06:34N 59°34' E 026°29'0 0.0
2018-Feb-14 06:16N 59°34' E 026°29'0 0.1
2018-Feb-14 05:52N 59°34' E 026°29'0 0.1
2018-Feb-14 05:30N 59°34' E 026°29'3 6.2
2018-Feb-14 05:01N 59°36' E 026°24'5 9.1
2018-Feb-14 04:30N 59°38' E 026°16'30 9.4
2018-Feb-14 01:18N 59°43' E 025°17'3 9.8
2018-Feb-14 01:00N 59°43' E 025°12'510.0
2018-Feb-14 00:29N 59°43' E 025°01'5 9.8
2018-Feb-14 00:00N 59°44' E 024°52'5 9.8
2018-Feb-13 23:30N 59°44' E 024°42'510.2
2018-Feb-13 23:00N 59°43' E 024°32'510.5
2018-Feb-13 22:31N 59°41' E 024°23'510.5
2018-Feb-13 22:00N 59°40' E 024°13'510.3
2018-Feb-13 21:30N 59°38' E 024°03'1010.1
2018-Feb-13 20:31N 59°35' E 023°44'011.3
2018-Feb-13 20:30N 59°35' E 023°44'610.6
2018-Feb-13 19:59N 59°33' E 023°34'610.6
2018-Feb-13 19:26N 59°31' E 023°23'410.1
2018-Feb-13 19:00N 59°30' E 023°15'44 9.8
2018-Feb-13 14:28N 59°29' E 021°48'510.0
2018-Feb-13 14:00N 59°30' E 021°39'510.0
2018-Feb-13 13:30N 59°31' E 021°29'5 9.9
2018-Feb-13 13:00N 59°33' E 021°20'5 9.7
2018-Feb-13 12:30N 59°34' E 021°11'5 9.8
2018-Feb-13 11:59N 59°36' E 021°01'56 9.2
2018-Feb-13 05:55N 59°59' E 019°21'4 9.9
2018-Feb-13 05:30N 60°03' E 019°15'5 9.6
2018-Feb-13 05:00N 60°06' E 019°09'5 9.6
2018-Feb-13 04:30N 60°10' E 019°03'5 9.0
2018-Feb-13 04:00N 60°14' E 019°01'5 9.2
2018-Feb-13 03:30N 60°19' E 019°00'5 9.5
2018-Feb-13 03:00N 60°24' E 018°59'70 9.9
2018-Feb-12 19:58N 61°06' E 020°54'510.8
2018-Feb-12 19:30N 61°08' E 021°03'510.4
2018-Feb-12 19:01N 61°07' E 021°13'5 9.4
2018-Feb-12 18:31N 61°07' E 021°23'2 3.8
2018-Feb-12 18:00N 61°07' E 021°27'0 0.0
2018-Feb-12 17:27N 61°07' E 021°27'0 0.0
2018-Feb-12 17:00N 61°07' E 021°27'0 0.0
2018-Feb-12 16:30N 61°07' E 021°27'0 0.0
2018-Feb-12 15:57N 61°07' E 021°27'0 0.0
2018-Feb-12 15:15N 61°07' E 021°27'0 0.0
2018-Feb-12 15:00N 61°07' E 021°27'0 0.0
2018-Feb-12 14:30N 61°07' E 021°27'0 0.0
2018-Feb-12 14:00N 61°07' E 021°27'0 0.0
2018-Feb-12 13:30N 61°07' E 021°27'0 0.0
2018-Feb-12 13:00N 61°07' E 021°27'0 0.0
2018-Feb-12 12:30N 61°07' E 021°27'0 0.0
2018-Feb-12 11:57N 61°07' E 021°27'0 0.0
2018-Feb-12 11:30N 61°07' E 021°27'0 0.0
2018-Feb-12 11:00N 61°07' E 021°27'0 0.0
2018-Feb-12 10:30N 61°07' E 021°27'0 0.0
2018-Feb-12 10:00N 61°07' E 021°27'0 0.0
2018-Feb-12 09:30N 61°07' E 021°27'0 0.0
2018-Feb-12 09:00N 61°07' E 021°27'0 0.0
2018-Feb-12 08:30N 61°07' E 021°27'0 0.0
2018-Feb-12 08:00N 61°07' E 021°27'0 0.0
2018-Feb-12 07:30N 61°07' E 021°27'0 0.0
2018-Feb-12 07:00N 61°07' E 021°27'0 0.0
2018-Feb-12 06:30N 61°07' E 021°27'0 0.0
2018-Feb-12 06:00N 61°07' E 021°27'0 0.0
2018-Feb-12 05:30N 61°07' E 021°27'0 0.0
2018-Feb-12 05:00N 61°07' E 021°27'0 0.0
2018-Feb-12 04:30N 61°07' E 021°27'0 0.0
2018-Feb-12 04:00N 61°07' E 021°27'0 0.0
2018-Feb-12 03:30N 61°07' E 021°27'0 0.3
2018-Feb-12 03:00N 61°07' E 021°26'  

Dump ship's entire track history